createdAt,value
2017-10-03T00:01:35.230Z,100574.77
2017-10-03T00:06:37.937Z,100589.36
2017-10-03T00:11:40.539Z,100580.36
2017-10-03T00:16:43.150Z,100599.13
2017-10-03T00:21:45.797Z,100602.66
2017-10-03T00:26:48.419Z,100635.51
2017-10-03T00:31:51.064Z,100632.06
2017-10-03T00:36:54.068Z,100630.20
2017-10-03T00:41:56.742Z,100621.31
2017-10-03T00:46:59.085Z,100613.09
2017-10-03T00:52:01.917Z,100600.63
2017-10-03T00:57:03.975Z,100598.73
2017-10-03T01:02:06.005Z,100609.33
2017-10-03T01:07:08.653Z,100609.17
2017-10-03T01:12:11.977Z,100605.58
2017-10-03T01:17:13.999Z,100586.73
2017-10-03T01:22:16.518Z,100600.62
2017-10-03T01:27:19.045Z,100594.11
2017-10-03T01:32:20.982Z,100613.69
2017-10-03T01:37:22.928Z,100596.92
2017-10-03T01:42:24.844Z,100587.05
2017-10-03T01:47:28.434Z,100588.05
2017-10-03T01:52:31.089Z,100600.22
2017-10-03T01:57:34.084Z,100603.05
2017-10-03T02:02:36.731Z,100607.25
2017-10-03T02:07:40.101Z,100610.77
2017-10-03T02:12:43.253Z,100613.14
2017-10-03T02:17:46.524Z,100600.16
2017-10-03T02:22:49.260Z,100603.76
2017-10-03T02:27:51.938Z,100600.41
2017-10-03T02:32:54.592Z,100600.37
2017-10-03T02:37:57.170Z,100602.02
2017-10-03T02:42:59.393Z,100596.23
2017-10-03T02:48:02.266Z,100603.88
2017-10-03T02:53:04.280Z,100594.66
2017-10-03T02:58:07.640Z,100598.09
2017-10-03T03:03:10.015Z,100604.75
2017-10-03T03:08:12.424Z,100616.47
2017-10-03T03:13:14.400Z,100615.19
2017-10-03T03:18:16.726Z,100608.08
2017-10-03T03:23:19.422Z,100604.66
2017-10-03T03:28:22.110Z,100597.11
2017-10-03T03:33:24.902Z,100599.84
2017-10-03T03:38:27.590Z,100598.94
2017-10-03T03:43:29.946Z,100598.59
2017-10-03T03:48:32.599Z,100604.51
2017-10-03T03:53:35.246Z,100614.32
2017-10-03T03:58:37.792Z,100604.84
2017-10-03T04:03:40.399Z,100611.28
2017-10-03T04:08:42.863Z,100618.79
2017-10-03T04:13:48.928Z,100618.81
2017-10-03T04:18:55.329Z,100627.53
2017-10-03T04:23:58.213Z,100626.50
2017-10-03T04:29:00.813Z,100632.01
2017-10-03T04:34:03.594Z,100631.92
2017-10-03T04:39:06.921Z,100640.95
2017-10-03T04:44:09.225Z,100645.44
2017-10-03T04:49:16.104Z,100655.60
2017-10-03T04:54:20.702Z,100663.39
2017-10-03T04:59:27.794Z,100669.23
2017-10-03T05:04:30.703Z,100665.04
2017-10-03T05:09:32.678Z,100662.25
2017-10-03T05:14:35.378Z,100670.27
2017-10-03T05:19:38.222Z,100676.98
2017-10-03T05:24:41.244Z,100680.56
2017-10-03T05:29:43.892Z,100683.66
2017-10-03T05:34:46.192Z,100682.05
2017-10-03T05:39:48.311Z,100691.88
2017-10-03T05:44:50.889Z,100698.20
2017-10-03T05:49:52.843Z,100704.36
2017-10-03T05:54:54.795Z,100706.30
2017-10-03T05:59:56.765Z,100723.11
2017-10-03T06:04:59.447Z,100724.79
2017-10-03T06:10:01.441Z,100731.72
2017-10-03T06:15:03.468Z,100732.63
2017-10-03T06:20:05.416Z,100737.82
2017-10-03T06:25:07.376Z,100744.14
2017-10-03T06:30:10.124Z,100759.41
2017-10-03T06:35:14.074Z,100762.31
2017-10-03T06:40:17.462Z,100770.75
2017-10-03T06:45:20.072Z,100774.98
2017-10-03T06:50:22.887Z,100786.31
2017-10-03T06:55:26.217Z,100792.03
2017-10-03T07:00:28.759Z,100797.63
2017-10-03T07:05:31.227Z,100809.92
2017-10-03T07:10:33.770Z,100805.91
2017-10-03T07:15:36.662Z,100813.73
2017-10-03T07:20:39.224Z,100819.08
2017-10-03T07:25:41.779Z,100819.26
2017-10-03T07:30:44.180Z,100828.03
2017-10-03T07:35:46.734Z,100832.42
2017-10-03T07:40:49.272Z,100842.98
2017-10-03T07:45:51.713Z,100850.67
2017-10-03T07:50:54.337Z,100853.14
2017-10-03T07:55:56.543Z,100862.30
2017-10-03T08:00:59.147Z,100869.84
2017-10-03T08:06:02.613Z,100889.98
2017-10-03T08:11:05.058Z,100896.55
2017-10-03T08:16:07.567Z,100911.09
2017-10-03T08:21:10.640Z,100909.61
2017-10-03T08:26:13.982Z,100918.80
2017-10-03T08:31:16.879Z,100930.30
2017-10-03T08:36:19.747Z,100935.20
2017-10-03T08:41:21.997Z,100941.53
2017-10-03T08:46:24.125Z,100947.97
2017-10-03T08:51:26.286Z,100966.36
2017-10-03T08:56:28.955Z,100973.98
2017-10-03T09:01:31.761Z,100979.45
2017-10-03T09:06:34.394Z,100987.47
2017-10-03T09:11:37.832Z,100992.02
2017-10-03T09:16:40.522Z,100994.82
2017-10-03T09:21:43.041Z,101007.16
2017-10-03T09:26:45.653Z,101012.16
2017-10-03T09:31:47.803Z,101011.58
2017-10-03T09:36:50.078Z,101013.06
2017-10-03T09:41:53.563Z,101015.87
2017-10-03T09:46:56.818Z,101023.28
2017-10-03T09:51:59.121Z,101031.50
2017-10-03T09:57:01.994Z,101035.33
2017-10-03T10:02:04.694Z,101039.70
2017-10-03T10:07:07.347Z,101051.11
2017-10-03T10:12:09.940Z,101051.12
2017-10-03T10:17:12.244Z,101062.38
2017-10-03T10:22:15.172Z,101063.08
2017-10-03T10:27:18.520Z,101075.03
2017-10-03T10:32:20.973Z,101085.61
2017-10-03T10:37:23.339Z,101086.55
2017-10-03T10:42:25.372Z,101087.42
2017-10-03T10:47:28.050Z,101097.09
2017-10-03T10:52:30.700Z,101105.00
2017-10-03T10:57:33.014Z,101099.59
2017-10-03T11:02:38.114Z,101111.14
2017-10-03T11:07:40.947Z,101108.81
2017-10-03T11:12:44.107Z,101122.31
2017-10-03T11:17:49.233Z,101130.36
2017-10-03T11:23:10.081Z,101135.98
2017-10-03T11:28:12.743Z,101121.86
2017-10-03T11:33:15.415Z,101122.45
2017-10-03T11:38:17.895Z,101120.90
2017-10-03T11:43:21.425Z,101129.87
2017-10-03T11:48:23.952Z,101132.03
2017-10-03T11:53:26.379Z,101136.27
2017-10-03T11:58:29.081Z,101142.75
2017-10-03T12:03:31.898Z,101151.72
2017-10-03T12:08:36.235Z,101155.61
2017-10-03T12:13:38.145Z,101157.06
2017-10-03T12:18:41.490Z,101157.50
2017-10-03T12:23:44.176Z,101142.86
2017-10-03T12:28:46.846Z,101157.27
2017-10-03T12:33:51.728Z,101165.56
2017-10-03T12:38:54.346Z,101171.59
2017-10-03T12:43:56.539Z,101166.59
2017-10-03T12:48:59.368Z,101174.30
2017-10-03T12:54:02.546Z,101176.45
2017-10-03T12:59:05.636Z,101178.25
2017-10-03T13:04:08.117Z,101197.83
2017-10-03T13:09:12.629Z,101203.00
2017-10-03T13:14:15.689Z,101208.80
2017-10-03T13:19:18.102Z,101215.84
2017-10-03T13:24:21.009Z,101217.34
2017-10-03T13:29:23.644Z,101223.61
2017-10-03T13:34:26.230Z,101219.80
2017-10-03T13:39:28.299Z,101217.83
2017-10-03T13:44:31.977Z,101223.72
2017-10-03T13:49:34.511Z,101235.19
2017-10-03T13:54:37.105Z,101240.86
2017-10-03T13:59:39.357Z,101239.20
2017-10-03T14:04:41.632Z,101249.16
2017-10-03T14:09:43.841Z,101264.58
2017-10-03T14:14:45.778Z,101260.98
2017-10-03T14:19:48.122Z,101281.00
2017-10-03T14:24:50.379Z,101297.70
2017-10-03T14:29:53.017Z,101309.16
2017-10-03T14:34:55.577Z,101328.73
2017-10-03T14:39:57.964Z,101336.21
2017-10-03T14:45:00.634Z,101346.45
2017-10-03T14:50:02.809Z,101350.48
2017-10-03T14:55:05.482Z,101351.12
2017-10-03T15:00:07.449Z,101358.42
2017-10-03T15:05:10.118Z,101350.20
2017-10-03T15:10:12.707Z,101343.18
2017-10-03T15:15:14.668Z,101358.38
2017-10-03T15:20:18.612Z,101353.46
2017-10-03T15:25:22.145Z,101365.22
2017-10-03T15:30:24.789Z,101385.70
2017-10-03T15:35:27.563Z,101396.62
2017-10-03T15:40:29.786Z,101405.28
2017-10-03T15:45:35.204Z,101417.27
2017-10-03T15:50:38.535Z,101421.13
2017-10-03T15:55:40.843Z,101423.52
2017-10-03T16:00:43.375Z,101425.33
2017-10-03T16:05:46.043Z,101427.48
2017-10-03T16:10:48.388Z,101431.77
2017-10-03T16:15:51.167Z,101439.23
2017-10-03T16:20:54.211Z,101437.05
2017-10-03T16:25:56.655Z,101426.75
2017-10-03T16:30:59.265Z,101434.70
2017-10-03T16:36:02.626Z,101446.19
2017-10-03T16:41:06.083Z,101451.42
2017-10-03T16:46:08.803Z,101467.07
2017-10-03T16:51:11.405Z,101459.54
2017-10-03T16:56:14.039Z,101468.03
2017-10-03T17:01:16.662Z,101465.90
2017-10-03T17:06:19.385Z,101482.66
2017-10-03T17:11:21.312Z,101485.48
2017-10-03T17:16:24.267Z,101496.23
2017-10-03T17:21:26.267Z,101483.76
2017-10-03T17:26:29.592Z,101502.67
2017-10-03T17:31:31.593Z,101499.62
2017-10-03T17:36:34.222Z,101511.02
2017-10-03T17:41:37.377Z,101509.56
2017-10-03T17:46:40.125Z,101518.70
2017-10-03T17:51:43.695Z,101525.70
2017-10-03T17:56:46.907Z,101532.59
2017-10-03T18:01:50.310Z,101533.07
2017-10-03T18:06:54.928Z,101539.04
2017-10-03T18:11:56.940Z,101540.55
2017-10-03T18:17:00.578Z,101544.64
2017-10-03T18:22:03.705Z,101543.08
2017-10-03T18:27:06.976Z,101549.44
2017-10-03T18:32:09.021Z,101559.30
2017-10-03T18:37:10.980Z,101571.84
2017-10-03T18:42:14.587Z,101561.05
2017-10-03T18:47:16.530Z,101576.54
2017-10-03T18:52:19.290Z,101592.84
2017-10-03T18:57:22.050Z,101607.19
2017-10-03T19:02:24.052Z,101599.86
2017-10-03T19:07:26.100Z,101608.06
2017-10-03T19:12:28.115Z,101613.83
2017-10-03T19:17:30.060Z,101613.61
2017-10-03T19:22:32.763Z,101616.31
2017-10-03T19:27:34.900Z,101607.11
2017-10-03T19:32:36.953Z,101615.27
2017-10-03T19:37:39.004Z,101616.81
2017-10-03T19:42:41.050Z,101628.28
2017-10-03T19:47:43.939Z,101627.45
2017-10-03T19:52:45.931Z,101630.81
2017-10-03T19:57:49.646Z,101642.22
2017-10-03T20:02:53.185Z,101646.25
2017-10-03T20:07:55.245Z,101663.95
2017-10-03T20:12:57.222Z,101653.20
2017-10-03T20:17:59.239Z,101659.12
2017-10-03T20:23:01.167Z,101664.61
2017-10-03T20:28:04.047Z,101661.86
2017-10-03T20:33:06.022Z,101677.06
2017-10-03T20:38:08.747Z,101689.45
2017-10-03T20:43:10.700Z,101684.84
2017-10-03T20:48:12.825Z,101688.36
2017-10-03T20:53:15.375Z,101681.73
2017-10-03T20:58:17.723Z,101688.19
2017-10-03T21:03:19.973Z,101678.42
2017-10-03T21:08:22.537Z,101673.05
2017-10-03T21:13:24.858Z,101670.53
2017-10-03T21:18:27.141Z,101658.20
2017-10-03T21:23:30.159Z,101654.14
2017-10-03T21:28:32.091Z,101655.95
2017-10-03T21:33:34.182Z,101654.37
2017-10-03T21:38:36.179Z,101644.33
2017-10-03T21:43:38.175Z,101646.53
2017-10-03T21:48:40.196Z,101660.34
2017-10-03T21:53:42.096Z,101616.83
2017-10-03T21:58:44.014Z,101663.50
2017-10-03T22:03:45.910Z,101685.20
2017-10-03T22:08:47.843Z,101676.67
2017-10-03T22:13:49.777Z,101669.31
2017-10-03T22:18:52.490Z,101670.86
2017-10-03T22:23:54.462Z,101679.48
2017-10-03T22:28:56.384Z,101680.72
2017-10-03T22:33:58.915Z,101682.48
2017-10-03T22:39:01.459Z,101667.14
2017-10-03T22:44:03.987Z,101667.84
2017-10-03T22:49:11.108Z,101675.51
2017-10-03T22:54:13.009Z,101672.40
2017-10-03T22:59:14.967Z,101672.45
2017-10-03T23:04:16.972Z,101659.23
2017-10-03T23:09:18.882Z,101667.52
2017-10-03T23:14:21.565Z,101662.30
2017-10-03T23:19:23.609Z,101658.64
2017-10-03T23:24:25.526Z,101654.97
2017-10-03T23:29:28.287Z,101663.96
2017-10-03T23:34:31.014Z,101665.70
2017-10-03T23:39:32.952Z,101672.62
2017-10-03T23:44:34.953Z,101674.53
2017-10-03T23:49:37.722Z,101679.53
2017-10-03T23:54:40.355Z,101665.53
2017-10-03T23:59:42.336Z,101655.97
